Time;durP1;ratioP1;P1;durP2;ratioP2;P2;SDS_P1;SDS_P2;PMS_P1;PMS_P2;Temp;Humidity;BMP_temperature;BMP_pressure;BME280_temperature;BME280_humidity;BME280_pressure;Samples;Min_cycle;Max_cycle;Signal;HPM_P1;HPM_P2
2022/06/29 00:00:04;;;;;;;8.37;7.67;;;;;;;19.00;91.51;156245.28;5020244;28;20482;-74
2022/06/29 00:02:35;;;;;;;7.40;6.80;;;;;;;18.97;91.63;156238.75;5025405;28;20524;-75
2022/06/29 00:05:03;;;;;;;8.23;7.53;;;;;;;18.97;92.26;156238.75;5010677;28;20457;-75
2022/06/29 00:07:29;;;;;;;7.30;6.70;;;;;;;18.95;92.18;156232.25;5023742;28;20555;-75
2022/06/29 00:09:56;;;;;;;8.47;7.77;;;;;;;18.94;92.38;156229.63;5025026;28;20485;-75
2022/06/29 00:12:23;;;;;;;7.73;7.03;;;;;;;18.94;92.56;156230.94;5009304;28;20552;-75
2022/06/29 00:14:50;;;;;;;7.70;7.00;;;;;;;18.93;92.82;156228.31;4991109;28;20543;-75
2022/06/29 00:17:16;;;;;;;7.77;7.10;;;;;;;18.90;94.36;156220.53;5024343;28;20453;-74
2022/06/29 00:19:45;;;;;;;7.37;6.77;;;;;;;18.84;93.65;156204.88;5008982;28;20554;-75
2022/06/29 00:22:11;;;;;;;7.77;7.17;;;;;;;18.83;92.68;156203.56;5010397;28;20752;-75
2022/06/29 00:24:38;;;;;;;7.67;7.07;;;;;;;18.89;93.23;156216.59;5008393;28;20488;-75
2022/06/29 00:27:05;;;;;;;8.50;7.70;;;;;;;18.85;93.48;156207.47;5007861;28;20789;-75
2022/06/29 00:29:32;;;;;;;7.40;6.80;;;;;;;18.79;93.30;156191.84;5006180;28;20452;-75
2022/06/29 00:31:59;;;;;;;8.33;7.60;;;;;;;18.74;92.77;156178.84;5008429;28;20466;-75
2022/06/29 00:34:25;;;;;;;7.63;7.03;;;;;;;18.71;95.18;156171.00;5025751;28;20502;-75
2022/06/29 00:36:54;;;;;;;7.97;7.27;;;;;;;18.63;96.37;156150.16;5022579;28;20484;-75
2022/06/29 00:39:22;;;;;;;7.13;6.53;;;;;;;18.59;95.10;156139.72;5028296;28;21064;-75
2022/06/29 00:41:48;;;;;;;7.43;6.73;;;;;;;18.57;94.64;156135.84;5009691;28;20460;-75
2022/06/29 00:44:16;;;;;;;7.50;6.90;;;;;;;18.58;95.66;156137.13;5026600;28;20449;-75
2022/06/29 00:46:48;;;;;;;8.67;7.97;;;;;;;18.58;94.90;156137.13;5030166;28;20539;-74
2022/06/29 00:49:15;;;;;;;7.63;7.03;;;;;;;18.67;95.29;156161.88;5012414;28;20432;-75
2022/06/29 00:51:45;;;;;;;8.27;7.57;;;;;;;18.63;95.38;156150.16;5008946;28;20527;-83
2022/06/29 00:54:17;;;;;;;8.00;7.40;;;;;;;18.58;94.85;156138.44;5027253;28;20967;-82
2022/06/29 00:56:44;;;;;;;7.30;6.70;;;;;;;18.54;95.15;156128.00;5013256;28;20445;-82
2022/06/29 00:59:14;;;;;;;7.70;6.97;;;;;;;18.52;95.03;156121.50;5011226;28;20602;-82
2022/06/29 01:01:42;;;;;;;8.23;7.53;;;;;;;18.52;94.63;156121.50;5010425;28;20449;-82
2022/06/29 01:04:08;;;;;;;8.53;7.83;;;;;;;18.57;95.26;156134.53;5013601;28;20796;-82
2022/06/29 01:06:35;;;;;;;7.90;7.30;;;;;;;18.56;94.98;156131.94;5014029;28;20447;-82
2022/06/29 01:09:03;;;;;;;8.30;7.60;;;;;;;18.51;94.88;156118.88;5008590;28;20459;-82
2022/06/29 01:11:31;;;;;;;7.47;6.87;;;;;;;18.44;96.05;156101.91;5025644;28;20809;-82
2022/06/29 01:13:58;;;;;;;7.80;7.20;;;;;;;18.40;96.53;156090.22;5028767;28;20453;-82
2022/06/29 01:16:26;;;;;;;8.87;8.17;;;;;;;18.37;97.33;156082.38;5028837;28;20461;-82
2022/06/29 01:18:53;;;;;;;8.90;8.10;;;;;;;18.36;97.07;156079.75;5011373;28;20571;-82
2022/06/29 01:21:20;;;;;;;9.30;8.60;;;;;;;18.35;97.39;156077.19;5027041;28;20495;-82
2022/06/29 01:23:49;;;;;;;9.50;8.70;;;;;;;18.34;97.35;156074.56;5010125;28;20574;-82
2022/06/29 01:26:15;;;;;;;8.80;8.00;;;;;;;18.34;96.98;156075.88;5025761;28;20872;-82
2022/06/29 01:28:46;;;;;;;9.70;8.80;;;;;;;18.36;98.41;156079.75;5010649;28;20551;-82
2022/06/29 01:31:16;;;;;;;9.13;8.43;;;;;;;18.25;98.50;156052.41;5007844;28;20810;-82
2022/06/29 01:33:43;;;;;;;9.03;8.13;;;;;;;18.22;99.58;156044.59;5011307;28;20944;-82
2022/06/29 01:36:10;;;;;;;9.43;8.63;;;;;;;18.20;99.14;156040.69;5019078;28;20464;-82
2022/06/29 01:38:37;;;;;;;8.83;8.03;;;;;;;18.17;99.70;156032.88;5007758;28;20457;-82
2022/06/29 01:41:06;;;;;;;8.83;8.03;;;;;;;18.13;99.02;156022.50;5007471;28;20508;-82
2022/06/29 01:43:33;;;;;;;8.60;7.90;;;;;;;18.13;98.93;156022.50;4993184;28;20438;-81
2022/06/29 01:46:00;;;;;;;8.60;7.83;;;;;;;18.12;99.89;156019.88;5005427;28;20955;-82
2022/06/29 01:48:26;;;;;;;9.90;8.40;;;;;;;18.07;100.00;156006.84;5008072;28;20453;-81
2022/06/29 01:50:53;;;;;;;9.10;8.30;;;;;;;18.04;100.00;155999.03;5024489;28;20543;-83
2022/06/29 01:53:20;;;;;;;8.43;7.73;;;;;;;18.02;100.00;155993.81;5011854;28;20487;-82
2022/06/29 01:55:47;;;;;;;8.73;8.03;;;;;;;18.02;100.00;155993.81;5011440;28;20460;-82
2022/06/29 01:58:16;;;;;;;8.57;7.77;;;;;;;18.04;100.00;155997.72;5012287;28;20452;-82
2022/06/29 02:00:43;;;;;;;9.47;8.57;;;;;;;18.01;100.00;155991.22;5009207;28;20898;-82
2022/06/29 02:03:10;;;;;;;8.47;7.77;;;;;;;17.99;100.00;155984.69;5024655;28;20489;-82
2022/06/29 02:05:37;;;;;;;8.50;7.80;;;;;;;17.97;100.00;155979.50;5009739;28;20561;-82
2022/06/29 02:08:03;;;;;;;9.47;8.70;;;;;;;17.97;100.00;155980.81;5020510;28;20455;-82
2022/06/29 02:10:30;;;;;;;9.20;8.30;;;;;;;17.96;100.00;155976.88;5006207;28;20603;-82
2022/06/29 02:12:57;;;;;;;8.70;8.00;;;;;;;17.94;100.00;155973.00;5008333;28;20547;-81
2022/06/29 02:15:26;;;;;;;9.23;8.33;;;;;;;17.93;100.00;155969.06;5008790;28;20448;-81
2022/06/29 02:17:52;;;;;;;8.10;7.40;;;;;;;17.86;100.00;155950.84;5009426;28;20475;-82
2022/06/29 02:20:20;;;;;;;9.00;8.10;;;;;;;17.84;100.00;155945.66;5009566;28;20579;-81
2022/06/29 02:22:46;;;;;;;8.80;7.90;;;;;;;17.81;100.00;155937.84;5026418;28;20444;-82
2022/06/29 02:25:13;;;;;;;8.43;7.73;;;;;;;17.78;100.00;155931.31;5025603;28;20440;-81
2022/06/29 02:27:40;;;;;;;7.90;7.30;;;;;;;17.76;100.00;155926.13;5011206;28;20491;-82
2022/06/29 02:30:09;;;;;;;8.70;8.00;;;;;;;17.77;100.00;155928.69;5011438;28;20456;-81
2022/06/29 02:35:21;;;;;;;9.20;8.50;;;;;;;17.67;100.00;155901.38;5010258;28;20836;-81
2022/06/29 02:37:48;;;;;;;8.90;8.20;;;;;;;17.62;100.00;155890.97;5007573;28;20789;-81
2022/06/29 02:40:14;;;;;;;8.90;8.10;;;;;;;17.59;100.00;155881.84;5027189;28;20817;-81
2022/06/29 02:42:41;;;;;;;10.83;8.40;;;;;;;17.54;100.00;155870.16;5025996;28;20448;-75
2022/06/29 02:45:08;;;;;;;9.67;8.37;;;;;;;17.55;100.00;155871.47;5009644;28;20453;-75
2022/06/29 02:47:36;;;;;;;9.33;8.53;;;;;;;17.54;100.00;155868.84;5011184;28;20445;-74
2022/06/29 02:50:03;;;;;;;9.27;8.40;;;;;;;17.51;100.00;155860.97;5023430;28;20507;-75
2022/06/29 02:52:30;;;;;;;9.77;8.77;;;;;;;17.49;100.00;155855.78;5007747;28;20540;-75
2022/06/29 02:54:57;;;;;;;9.77;8.87;;;;;;;17.48;100.00;155853.16;5023831;28;20529;-75
2022/06/29 02:57:24;;;;;;;8.87;8.07;;;;;;;17.47;100.00;155850.56;5009750;28;20449;-75
2022/06/29 02:59:51;;;;;;;9.70;8.90;;;;;;;17.45;100.00;155845.34;5007977;28;20495;-75
2022/06/29 03:02:18;;;;;;;9.60;8.70;;;;;;;17.43;100.00;155840.13;5009338;28;20924;-75
2022/06/29 03:04:46;;;;;;;9.93;9.10;;;;;;;17.40;100.00;155832.31;5010006;28;20504;-75
2022/06/29 03:07:13;;;;;;;8.87;7.97;;;;;;;17.38;100.00;155827.13;5008635;28;20615;-75
2022/06/29 03:09:39;;;;;;;9.80;8.90;;;;;;;17.37;100.00;155825.81;5023668;28;20456;-75
2022/06/29 03:12:06;;;;;;;9.50;8.50;;;;;;;17.36;100.00;155821.94;5010632;28;20449;-75
2022/06/29 03:14:33;;;;;;;9.60;8.80;;;;;;;17.32;100.00;155811.50;5012003;28;20440;-75
2022/06/29 03:17:00;;;;;;;9.60;8.70;;;;;;;17.32;100.00;155811.50;5026659;28;21243;-75
2022/06/29 03:19:27;;;;;;;10.17;9.20;;;;;;;17.27;100.00;155799.78;5010631;28;20444;-75
2022/06/29 03:21:55;;;;;;;10.30;9.37;;;;;;;17.30;100.00;155806.28;5007540;28;20440;-75
2022/06/29 03:24:21;;;;;;;10.03;9.10;;;;;;;17.30;100.00;155806.28;5008941;28;20494;-75
2022/06/29 03:26:48;;;;;;;10.50;9.50;;;;;;;17.28;100.00;155802.41;5008186;28;20457;-75
2022/06/29 03:29:15;;;;;;;9.20;8.40;;;;;;;17.28;100.00;155802.41;5024121;28;20503;-75
2022/06/29 03:31:41;;;;;;;9.93;8.93;;;;;;;17.30;100.00;155807.63;5007677;28;20539;-75
2022/06/29 03:34:08;;;;;;;10.00;9.10;;;;;;;17.31;100.00;155810.22;5018874;28;20547;-75
2022/06/29 03:36:35;;;;;;;10.10;9.20;;;;;;;17.32;100.00;155811.50;5023963;28;20494;-75
2022/06/29 03:39:03;;;;;;;10.97;10.07;;;;;;;17.31;100.00;155808.91;5022818;28;20453;-75
2022/06/29 03:41:30;;;;;;;10.80;9.73;;;;;;;17.32;100.00;155811.50;5006570;28;20480;-75
2022/06/29 03:43:57;;;;;;;12.00;9.47;;;;;;;17.36;100.00;155821.94;5008996;28;20468;-75
2022/06/29 03:46:24;;;;;;;10.60;9.70;;;;;;;17.37;100.00;155824.50;5008209;28;20552;-75
2022/06/29 03:48:50;;;;;;;9.80;9.00;;;;;;;17.39;100.00;155829.75;5025436;28;20460;-75
2022/06/29 03:51:17;;;;;;;9.93;9.13;;;;;;;17.44;100.00;155842.75;5007918;28;20519;-75
2022/06/29 03:53:44;;;;;;;9.93;8.93;;;;;;;17.46;100.00;155847.94;5009800;28;20894;-75
2022/06/29 03:56:12;;;;;;;10.50;9.60;;;;;;;17.46;100.00;155847.94;5008368;28;20532;-75
2022/06/29 03:58:40;;;;;;;9.80;8.90;;;;;;;17.43;100.00;155840.13;5008554;28;20480;-75
2022/06/29 04:01:07;;;;;;;11.80;10.57;;;;;;;17.43;100.00;155840.13;5008375;28;20567;-75
2022/06/29 04:03:33;;;;;;;10.83;9.83;;;;;;;17.45;100.00;155845.34;5025839;28;20447;-75
2022/06/29 04:06:00;;;;;;;10.80;9.90;;;;;;;17.65;100.00;155897.47;5011188;28;20449;-74
2022/06/29 04:08:27;;;;;;;10.70;9.70;;;;;;;17.62;100.00;155889.66;5007671;28;20453;-75
2022/06/29 04:10:54;;;;;;;10.50;9.60;;;;;;;17.61;100.00;155887.03;5024971;28;20551;-75
2022/06/29 04:13:22;;;;;;;10.47;9.47;;;;;;;17.66;100.00;155898.78;5013204;28;20854;-75
2022/06/29 04:15:49;;;;;;;9.73;8.93;;;;;;;17.72;100.00;155915.69;5030034;28;20547;-75
2022/06/29 04:18:16;;;;;;;11.20;10.00;;;;;;;17.80;100.00;155936.53;5012149;28;20552;-75
2022/06/29 04:23:27;;;;;;;12.23;11.10;;;;;;;17.95;100.00;155975.56;5027850;28;20476;-75
2022/06/29 04:25:53;;;;;;;10.23;9.33;;;;;;;18.04;100.00;155999.03;5012080;28;21070;-75
2022/06/29 04:28:22;;;;;;;10.40;9.30;;;;;;;18.22;100.00;156045.91;5013494;28;20464;-75
2022/06/29 04:30:49;;;;;;;10.53;9.53;;;;;;;18.30;100.00;156064.13;5015196;28;20452;-81
2022/06/29 04:33:15;;;;;;;9.30;8.40;;;;;;;18.49;100.00;156113.66;5021282;28;21017;-81
2022/06/29 04:35:42;;;;;;;10.23;9.17;;;;;;;18.63;100.00;156150.16;5027621;28;20542;-81
2022/06/29 04:38:09;;;;;;;10.00;9.20;;;;;;;18.81;100.00;156198.38;5010827;28;20936;-81
2022/06/29 04:40:35;;;;;;;9.53;8.47;;;;;;;19.02;100.00;156250.47;5011786;28;20484;-81
2022/06/29 04:43:02;;;;;;;9.00;8.30;;;;;;;19.23;100.00;156305.19;5026229;28;20456;-82
2022/06/29 04:48:15;;;;;;;9.83;8.93;;;;;;;19.52;96.51;156380.84;5009735;28;20643;-82
2022/06/29 04:50:41;;;;;;;9.37;8.43;;;;;;;19.53;96.08;156383.47;5010549;28;20940;-82
2022/06/29 04:53:08;;;;;;;7.60;6.90;;;;;;;19.49;95.87;156371.72;5012178;28;20955;-81
2022/06/29 04:55:35;;;;;;;9.60;8.80;;;;;;;19.38;96.51;156345.66;4995196;28;20502;-82
2022/06/29 04:58:02;;;;;;;8.47;7.70;;;;;;;19.27;96.39;156316.91;5011754;28;20926;-81
2022/06/29 05:00:30;;;;;;;9.50;8.60;;;;;;;19.18;96.82;156293.50;5009727;28;20574;-82
2022/06/29 05:02:56;;;;;;;8.80;8.00;;;;;;;19.17;96.76;156290.88;5010167;28;20952;-81
2022/06/29 05:05:23;;;;;;;9.30;8.30;;;;;;;19.12;96.47;156277.84;5012614;28;20894;-81
2022/06/29 05:07:50;;;;;;;8.97;8.27;;;;;;;19.00;97.85;156246.59;5009177;28;20453;-81
2022/06/29 05:10:17;;;;;;;9.37;8.57;;;;;;;18.94;96.71;156230.94;5012404;28;20492;-82
2022/06/29 05:12:43;;;;;;;9.20;8.30;;;;;;;18.89;97.63;156217.91;5011177;28;20488;-82
2022/06/29 05:15:11;;;;;;;10.67;9.73;;;;;;;18.78;97.43;156189.22;5009620;28;20585;-81
2022/06/29 05:17:39;;;;;;;10.20;9.20;;;;;;;18.73;98.49;156176.22;5010783;28;20788;-81
2022/06/29 05:20:08;;;;;;;9.97;8.97;;;;;;;18.69;98.01;156165.81;5027809;28;20503;-82
2022/06/29 05:22:35;;;;;;;9.87;9.07;;;;;;;18.64;98.93;156154.06;5027282;28;20457;-82
2022/06/29 05:25:02;;;;;;;9.30;8.50;;;;;;;18.64;100.00;156152.75;5010789;28;20751;-81
2022/06/29 05:27:28;;;;;;;10.00;9.10;;;;;;;18.64;99.33;156152.75;5013258;28;20452;-82
2022/06/29 05:29:55;;;;;;;10.60;9.60;;;;;;;18.69;98.80;156165.81;5015104;28;20903;-81
2022/06/29 05:32:22;;;;;;;10.87;9.87;;;;;;;18.70;98.89;156169.69;5009138;28;20492;-81
2022/06/29 05:34:50;;;;;;;10.00;9.03;;;;;;;18.67;98.94;156160.56;5013221;28;20476;-81
2022/06/29 05:37:17;;;;;;;11.17;10.17;;;;;;;18.65;98.69;156156.66;5010700;28;20552;-82
2022/06/29 05:39:44;;;;;;;11.17;10.10;;;;;;;18.64;98.93;156152.75;5024630;28;20451;-81
2022/06/29 05:42:12;;;;;;;11.70;10.50;;;;;;;18.58;99.91;156138.44;5011440;28;20508;-82
2022/06/29 05:44:39;;;;;;;10.20;9.30;;;;;;;18.63;99.44;156150.16;5024542;28;20467;-81
2022/06/29 05:47:06;;;;;;;12.03;10.83;;;;;;;18.61;100.00;156146.22;5020918;28;20464;-81
2022/06/29 05:49:32;;;;;;;13.90;11.53;;;;;;;18.69;99.11;156165.81;5010905;28;20804;-82
2022/06/29 05:52:00;;;;;;;14.03;11.30;;;;;;;18.78;97.91;156189.22;5001173;28;20444;-82
2022/06/29 05:54:27;;;;;;;11.23;10.17;;;;;;;18.90;97.45;156219.22;5009066;28;20527;-82
2022/06/29 05:56:54;;;;;;;10.93;9.93;;;;;;;18.92;97.76;156224.41;5010000;28;20492;-82
2022/06/29 05:59:21;;;;;;;11.93;10.83;;;;;;;18.99;100.00;156243.97;5027355;28;20909;-82
2022/06/29 06:01:47;;;;;;;13.23;11.47;;;;;;;19.04;98.49;156256.97;5010951;28;20812;-81
2022/06/29 06:04:14;;;;;;;13.97;12.67;;;;;;;19.16;97.44;156288.28;5011027;28;20433;-81
2022/06/29 06:06:41;;;;;;;15.47;13.83;;;;;;;19.19;97.46;156296.13;5008251;28;20789;-82
2022/06/29 06:09:09;;;;;;;13.90;12.50;;;;;;;19.23;96.54;156306.53;5010944;28;20475;-82
2022/06/29 06:11:36;;;;;;;14.70;12.63;;;;;;;19.23;96.48;156305.19;5012500;28;20453;-82
2022/06/29 06:14:02;;;;;;;13.90;12.50;;;;;;;19.27;97.04;156315.66;5027793;28;20441;-82
2022/06/29 06:16:29;;;;;;;12.10;10.90;;;;;;;19.36;97.81;156340.41;5023796;28;20626;-82
2022/06/29 06:18:56;;;;;;;12.17;10.67;;;;;;;19.43;97.82;156357.41;5023772;28;20547;-82
2022/06/29 06:21:23;;;;;;;11.00;9.90;;;;;;;19.73;97.30;156435.59;5010913;28;20511;-82
2022/06/29 06:23:49;;;;;;;11.70;10.60;;;;;;;20.08;96.58;156524.25;5010212;28;20853;-82
2022/06/29 06:26:17;;;;;;;12.70;11.60;;;;;;;20.28;93.52;156577.78;5010035;28;20785;-82
2022/06/29 06:28:44;;;;;;;12.00;10.80;;;;;;;20.64;92.48;156671.72;5012119;28;20539;-75
2022/06/29 06:31:11;;;;;;;11.53;10.07;;;;;;;21.09;90.68;156786.59;5010894;28;20456;-75
2022/06/29 06:33:38;;;;;;;12.70;11.17;;;;;;;21.56;87.58;156909.28;5027104;28;20448;-75
2022/06/29 06:36:05;;;;;;;11.37;10.17;;;;;;;21.95;86.09;157009.84;5007024;28;20650;-75
2022/06/29 06:38:31;;;;;;;10.43;9.53;;;;;;;22.42;84.35;157131.31;4992411;28;20483;-75
2022/06/29 06:43:44;;;;;;;10.17;9.27;;;;;;;23.13;78.31;157314.28;5007033;28;20797;-76
2022/06/29 06:46:11;;;;;;;10.20;9.20;;;;;;;23.33;77.56;157366.53;5007382;28;20470;-76
2022/06/29 06:48:37;;;;;;;11.03;10.13;;;;;;;23.41;77.32;157387.50;5008496;28;20459;-75
2022/06/29 06:51:04;;;;;;;10.50;9.60;;;;;;;23.55;75.60;157424.09;5010431;28;20568;-76
2022/06/29 06:53:31;;;;;;;9.70;8.80;;;;;;;23.75;75.21;157476.38;5024482;28;20813;-76
2022/06/29 06:55:57;;;;;;;11.50;9.30;;;;;;;24.04;74.97;157550.94;5019867;28;20993;-76
2022/06/29 06:58:24;;;;;;;11.07;10.17;;;;;;;24.23;69.71;157601.97;5008077;28;20448;-76
2022/06/29 07:00:52;;;;;;;10.23;9.33;;;;;;;24.45;70.38;157656.91;5009443;28;20535;-76
2022/06/29 07:03:19;;;;;;;10.03;9.13;;;;;;;24.69;68.83;157719.69;5023834;28;20664;-76
2022/06/29 07:05:46;;;;;;;9.53;8.63;;;;;;;24.76;68.09;157737.97;4992344;28;20500;-76
2022/06/29 07:08:13;;;;;;;8.93;8.23;;;;;;;24.99;68.41;157798.25;5009919;28;20789;-76
2022/06/29 07:10:39;;;;;;;8.60;7.80;;;;;;;25.32;68.07;157883.28;5011882;28;20478;-76
2022/06/29 07:13:06;;;;;;;9.90;8.10;;;;;;;25.56;65.12;157944.84;5009594;28;20449;-76
2022/06/29 07:15:33;;;;;;;10.03;9.07;;;;;;;25.86;63.75;158023.41;5023937;28;20456;-76
2022/06/29 07:18:02;;;;;;;8.37;7.77;;;;;;;25.95;64.19;158046.94;5025553;28;20483;-76
2022/06/29 07:20:30;;;;;;;8.80;8.10;;;;;;;26.00;62.98;158060.03;5025215;28;20469;-76
2022/06/29 07:22:57;;;;;;;7.87;7.27;;;;;;;26.32;61.33;158143.88;5013091;28;20511;-76
2022/06/29 07:25:24;;;;;;;7.57;6.97;;;;;;;26.50;58.87;158189.75;5011205;28;20445;-76
2022/06/29 07:27:51;;;;;;;8.80;8.20;;;;;;;26.46;59.93;158179.25;5017476;28;20991;-76
2022/06/29 07:30:17;;;;;;;7.77;7.07;;;;;;;26.73;59.13;158250.00;5029512;28;20447;-76
2022/06/29 07:32:44;;;;;;;7.83;7.23;;;;;;;26.65;58.79;158227.72;5011429;28;20448;-76
2022/06/29 07:35:12;;;;;;;8.33;7.67;;;;;;;26.50;59.41;158191.03;5009488;28;20516;-76
2022/06/29 07:37:39;;;;;;;7.60;6.90;;;;;;;26.86;58.97;158282.78;5008892;28;20445;-76
2022/06/29 07:40:07;;;;;;;7.40;6.90;;;;;;;27.05;60.38;158332.56;5023767;28;20545;-76
2022/06/29 07:42:35;;;;;;;7.67;7.07;;;;;;;27.41;57.10;158425.63;5024704;28;20571;-76
2022/06/29 07:45:02;;;;;;;8.57;7.90;;;;;;;27.17;57.53;158365.31;5015900;28;20523;-76
2022/06/29 07:47:29;;;;;;;7.70;7.10;;;;;;;27.08;58.84;158340.44;5006734;28;20554;-76
2022/06/29 07:49:55;;;;;;;10.40;9.47;;;;;;;26.72;60.39;158247.34;5009051;28;20544;-76
2022/06/29 07:52:23;;;;;;;9.43;8.70;;;;;;;26.61;60.82;158219.84;5025872;28;20469;-76
2022/06/29 07:54:50;;;;;;;10.43;9.63;;;;;;;26.44;61.79;158175.34;5022810;28;20450;-76
2022/06/29 07:57:17;;;;;;;9.10;8.20;;;;;;;27.13;59.26;158353.53;5024210;28;20920;-76
2022/06/29 07:59:45;;;;;;;10.67;9.67;;;;;;;26.42;60.38;158168.81;5018799;28;20449;-76
2022/06/29 08:02:11;;;;;;;10.70;9.70;;;;;;;26.09;61.39;158083.63;5007596;28;20484;-76
2022/06/29 08:04:38;;;;;;;9.07;8.37;;;;;;;25.99;63.06;158057.44;5007090;28;20560;-76
2022/06/29 08:07:05;;;;;;;10.17;9.10;;;;;;;26.08;61.85;158079.72;5008335;28;20503;-76
2022/06/29 08:09:34;;;;;;;9.93;9.10;;;;;;;26.08;63.12;158080.97;5025638;28;20447;-76
2022/06/29 08:12:01;;;;;;;8.20;7.60;;;;;;;26.51;61.13;158193.66;5006151;28;20533;-76
2022/06/29 08:14:27;;;;;;;8.57;7.87;;;;;;;26.51;61.41;158192.34;5005167;28;20463;-76
2022/06/29 08:16:54;;;;;;;8.37;7.67;;;;;;;27.01;59.90;158323.38;4999791;28;20487;-76
2022/06/29 08:19:21;;;;;;;9.00;8.30;;;;;;;27.09;61.30;158343.03;5001119;28;20474;-76
2022/06/29 08:21:48;;;;;;;8.97;8.03;;;;;;;27.16;58.80;158361.41;5006943;28;20546;-76
2022/06/29 08:24:14;;;;;;;8.10;7.30;;;;;;;27.08;59.15;158341.75;5020700;28;20534;-76
2022/06/29 08:26:42;;;;;;;8.00;7.40;;;;;;;27.45;58.79;158437.47;5012247;28;21006;-76
2022/06/29 08:29:10;;;;;;;9.03;8.33;;;;;;;26.47;59.89;158183.22;5007227;28;20544;-84
2022/06/29 08:31:37;;;;;;;8.67;7.50;;;;;;;26.89;59.08;158291.97;5007808;28;20461;-84
2022/06/29 08:34:04;;;;;;;8.63;8.03;;;;;;;27.19;59.27;158369.28;5024910;28;20453;-84
2022/06/29 08:36:31;;;;;;;11.60;7.97;;;;;;;27.22;59.38;158375.81;5008996;28;20480;-84
2022/06/29 08:39:00;;;;;;;7.67;6.97;;;;;;;27.44;58.78;158433.50;5009977;28;20444;-84
2022/06/29 08:41:27;;;;;;;9.53;8.50;;;;;;;27.35;57.78;158409.91;5024313;28;20812;-84
2022/06/29 08:43:56;;;;;;;11.73;8.30;;;;;;;27.15;59.12;158358.78;5005796;28;20445;-84
2022/06/29 08:46:23;;;;;;;8.20;7.30;;;;;;;27.61;59.42;158478.09;5010026;28;20452;-84
2022/06/29 08:48:49;;;;;;;8.60;7.97;;;;;;;27.84;57.64;158538.38;5026512;28;20436;-84
2022/06/29 08:51:20;;;;;;;9.17;8.47;;;;;;;27.86;56.45;158542.28;5005338;28;20543;-85
2022/06/29 08:53:47;;;;;;;9.20;8.40;;;;;;;27.28;58.23;158392.84;5009832;28;20536;-84
2022/06/29 08:56:14;;;;;;;10.00;9.20;;;;;;;26.52;60.22;158196.31;5010494;28;20473;-84
2022/06/29 08:58:41;;;;;;;9.23;8.53;;;;;;;26.08;61.12;158080.97;5025401;28;20483;-85
2022/06/29 09:01:09;;;;;;;12.67;8.13;;;;;;;26.26;61.87;158128.22;5008757;28;20559;-84
2022/06/29 09:03:36;;;;;;;9.53;8.63;;;;;;;26.59;60.58;158213.31;5010685;28;20449;-84
2022/06/29 09:06:03;;;;;;;10.33;9.60;;;;;;;26.50;60.16;158191.03;4993163;28;20564;-84
2022/06/29 09:08:32;;;;;;;9.67;8.87;;;;;;;26.29;61.74;158134.75;5011968;28;20452;-84
2022/06/29 09:10:58;;;;;;;8.27;7.67;;;;;;;26.39;61.73;158162.25;5012668;28;20443;-84
2022/06/29 09:13:25;;;;;;;10.33;8.60;;;;;;;26.76;60.84;158256.53;5013407;28;20447;-84
2022/06/29 09:15:58;;;;;;;9.40;8.60;;;;;;;26.69;59.93;158238.22;5028916;28;20437;-84
2022/06/29 09:18:28;;;;;;;10.77;9.77;;;;;;;26.64;60.17;158226.41;5009976;28;20449;-84
2022/06/29 09:20:56;;;;;;;10.07;9.17;;;;;;;26.41;60.17;158167.47;5012023;28;20480;-84
2022/06/29 09:23:28;;;;;;;9.03;8.33;;;;;;;26.74;59.83;158252.59;5012790;28;20761;-84
2022/06/29 09:25:55;;;;;;;8.40;7.80;;;;;;;26.68;59.90;158235.59;5010750;28;20542;-84
2022/06/29 09:28:24;;;;;;;8.60;8.00;;;;;;;26.50;60.38;158191.03;5013681;28;20469;-84
2022/06/29 09:30:52;;;;;;;9.23;8.23;;;;;;;26.37;61.60;158156.97;5014643;28;20477;-84
2022/06/29 09:33:21;;;;;;;9.90;8.90;;;;;;;26.13;61.16;158094.16;5025979;28;20447;-84
2022/06/29 09:36:05;;;;;;;9.37;8.67;;;;;;;26.48;61.88;158185.81;5012835;28;20587;-84
2022/06/29 09:38:31;;;;;;;9.20;8.40;;;;;;;26.75;61.07;158253.91;5012844;28;20523;-84
2022/06/29 09:41:03;;;;;;;9.37;8.67;;;;;;;26.98;59.27;158314.25;5011851;28;20453;-84
2022/06/29 09:43:31;;;;;;;9.00;8.30;;;;;;;27.32;58.57;158403.34;5008459;28;20505;-84
2022/06/29 09:46:00;;;;;;;9.93;9.07;;;;;;;26.96;59.36;158308.97;5009328;28;20441;-84
2022/06/29 09:48:28;;;;;;;10.70;7.63;;;;;;;27.08;59.31;158340.44;5008534;28;20461;-84
2022/06/29 09:50:56;;;;;;;10.03;8.17;;;;;;;27.36;58.09;158413.81;5010044;28;20460;-84
2022/06/29 09:53:31;;;;;;;7.80;7.13;;;;;;;27.52;57.96;158455.78;5012816;28;20484;-84
2022/06/29 09:56:04;;;;;;;7.77;7.17;;;;;;;27.36;59.08;158413.81;5013191;28;20539;-84
2022/06/29 09:58:41;;;;;;;8.10;7.37;;;;;;;27.40;59.18;158424.38;5013272;28;20421;-84
2022/06/29 10:03:55;;;;;;;9.07;8.17;;;;;;;27.12;59.29;158350.91;5010435;28;20441;-84
2022/06/29 10:06:24;;;;;;;8.50;7.80;;;;;;;27.12;62.34;158350.91;5027860;28;20495;-84
2022/06/29 10:08:51;;;;;;;7.90;7.30;;;;;;;27.20;61.92;158371.88;5011676;28;20448;-84
2022/06/29 10:14:13;;;;;;;8.20;7.50;;;;;;;26.97;62.35;158311.63;5011850;28;20991;-84
2022/06/29 10:16:48;;;;;;;7.37;6.67;;;;;;;26.84;61.35;158278.88;5010158;28;20479;-84
2022/06/29 10:19:29;;;;;;;7.90;7.10;;;;;;;26.84;62.40;158278.88;5011907;28;20428;-84
2022/06/29 10:21:59;;;;;;;7.87;7.17;;;;;;;26.67;67.12;158232.94;5009321;28;20472;-84
2022/06/29 10:24:26;;;;;;;8.40;7.70;;;;;;;26.42;62.56;158170.06;5012729;28;20433;-84
2022/06/29 10:26:53;;;;;;;7.50;6.80;;;;;;;26.28;67.65;158133.44;5009745;28;20456;-84
2022/06/29 10:29:36;;;;;;;8.30;7.70;;;;;;;26.20;62.69;158112.47;5011022;28;20448;-84
2022/06/29 10:32:07;;;;;;;8.93;8.23;;;;;;;26.31;65.54;158141.31;5012682;28;20452;-84
2022/06/29 10:34:41;;;;;;;8.80;8.10;;;;;;;26.37;67.65;158156.97;5010456;28;20947;-83
2022/06/29 10:37:11;;;;;;;9.27;7.67;;;;;;;26.36;65.41;158154.41;5011568;28;20449;-84
2022/06/29 10:39:54;;;;;;;8.17;7.57;;;;;;;26.38;63.28;158158.31;5027390;28;20428;-84
2022/06/29 10:45:37;;;;;;;9.73;7.47;;;;;;;25.99;64.03;158057.44;4997928;28;20494;-84
2022/06/29 10:48:17;;;;;;;9.83;8.87;;;;;;;25.65;63.55;157968.44;5003719;28;20452;-84
2022/06/29 10:50:46;;;;;;;8.43;7.70;;;;;;;25.55;65.77;157942.25;5008989;28;20536;-83
2022/06/29 10:53:16;;;;;;;8.17;7.50;;;;;;;25.55;65.84;157943.53;5007460;28;20543;-84
2022/06/29 10:55:44;;;;;;;8.50;7.70;;;;;;;25.62;65.24;157960.56;5010630;28;20518;-84
2022/06/29 10:58:11;;;;;;;8.47;7.73;;;;;;;25.74;65.26;157991.97;5008599;28;20472;-84
2022/06/29 11:00:40;;;;;;;9.90;7.80;;;;;;;25.92;65.85;158039.13;5009799;28;20503;-84
2022/06/29 11:03:10;;;;;;;8.27;7.67;;;;;;;25.97;64.51;158052.22;5009523;28;20519;-84
2022/06/29 11:12:01;;;;;;;7.80;7.20;;;;;;;25.89;63.53;158031.25;5026463;28;20441;-84
2022/06/29 11:13:57;;;;;;;12.37;9.50;;;;;;;25.92;67.24;158039.13;5022817;28;20445;-84
2022/06/29 11:16:35;;;;;;;9.33;8.43;;;;;;;26.05;63.99;158071.84;5009659;28;20915;-84
2022/06/29 11:19:03;;;;;;;11.00;8.73;;;;;;;26.02;62.34;158066.63;5006044;28;20944;-84
2022/06/29 11:21:30;;;;;;;8.30;7.60;;;;;;;26.17;63.38;158104.63;5011414;28;20433;-84
2022/06/29 11:24:02;;;;;;;9.27;8.37;;;;;;;26.05;62.52;158073.16;5008474;28;20864;-84
2022/06/29 11:26:30;;;;;;;9.40;8.70;;;;;;;25.83;62.48;158016.88;4999474;28;20765;-84
2022/06/29 11:28:58;;;;;;;8.70;7.90;;;;;;;25.70;63.59;157981.50;5027024;28;20437;-84
2022/06/29 11:31:25;;;;;;;9.50;8.37;;;;;;;25.74;62.26;157993.28;5011196;28;20987;-84
2022/06/29 11:33:54;;;;;;;12.43;8.80;;;;;;;25.82;62.54;158014.22;5005995;28;20441;-84
2022/06/29 11:36:22;;;;;;;8.43;7.70;;;;;;;25.80;64.59;158009.00;5008447;28;20650;-84
2022/06/29 11:38:51;;;;;;;7.90;7.20;;;;;;;26.04;64.02;158070.53;5006839;28;20487;-84
2022/06/29 11:41:20;;;;;;;8.00;7.30;;;;;;;26.32;63.90;158143.88;5032903;28;20444;-84
2022/06/29 11:44:01;;;;;;;9.10;8.30;;;;;;;26.43;62.71;158171.38;5029101;28;20704;-84
2022/06/29 11:46:28;;;;;;;10.63;7.37;;;;;;;26.09;61.24;158083.63;5002053;28;20465;-84